Time;durP1;ratioP1;P1;durP2;ratioP2;P2;SDS_P1;SDS_P2;PMS_P1;PMS_P2;Temp;Humidity;BMP_temperature;BMP_pressure;BME280_temperature;BME280_humidity;BME280_pressure;Samples;Min_cycle;Max_cycle;Signal;HPM_P1;HPM_P2
2023/11/13 00:00:55;;;;;;;0.30;0.30;;;8.70;99.90;;;;;;2067523;28;20233;-68
2023/11/13 00:01:56;;;;;;;0.20;0.20;;;8.80;99.90;;;;;;2084562;28;20690;-68
2023/11/13 00:02:57;;;;;;;0.47;0.30;;;8.80;99.90;;;;;;2080264;28;20224;-70
2023/11/13 00:03:57;;;;;;;0.30;0.30;;;8.90;99.90;;;;;;2072487;28;20790;-70
2023/11/13 00:04:58;;;;;;;0.40;0.40;;;8.90;99.90;;;;;;2081570;28;20200;-69
2023/11/13 00:05:59;;;;;;;0.30;0.30;;;9.00;99.90;;;;;;2087019;28;20195;-67
2023/11/13 00:06:59;;;;;;;0.20;0.20;;;9.00;99.90;;;;;;2079242;28;20212;-68
2023/11/13 00:08:00;;;;;;;0.23;0.20;;;9.00;99.90;;;;;;2080146;28;20217;-68
2023/11/13 00:09:01;;;;;;;0.23;0.23;;;9.00;99.90;;;;;;2071425;28;20237;-68
2023/11/13 00:10:04;;;;;;;0.20;0.20;;;9.00;99.90;;;;;;2063881;28;20197;-68
2023/11/13 00:11:05;;;;;;;0.20;0.20;;;9.00;99.90;;;;;;2072136;28;20193;-68
2023/11/13 00:12:07;;;;;;;0.30;0.30;;;9.00;99.90;;;;;;2086176;28;20192;-68
2023/11/13 00:13:10;;;;;;;0.30;0.30;;;9.00;99.90;;;;;;2079270;28;20275;-68
2023/11/13 00:14:11;;;;;;;0.30;0.30;;;9.10;99.90;;;;;;2083910;28;20252;-68
2023/11/13 00:15:13;;;;;;;0.20;0.20;;;9.10;99.90;;;;;;2083740;28;20705;-68
2023/11/13 00:16:14;;;;;;;0.25;0.25;;;9.10;99.90;;;;;;2085269;28;20216;-68
2023/11/13 00:17:14;;;;;;;0.20;0.20;;;9.10;99.90;;;;;;2073025;28;20202;-67
2023/11/13 00:18:15;;;;;;;0.30;0.30;;;9.10;99.90;;;;;;2083069;28;20225;-67
2023/11/13 00:19:16;;;;;;;0.30;0.30;;;9.10;99.90;;;;;;2082695;28;20708;-68
2023/11/13 00:20:18;;;;;;;1.55;0.40;;;9.20;99.90;;;;;;2076017;28;20243;-68
2023/11/13 00:21:21;;;;;;;0.28;0.28;;;9.10;99.90;;;;;;2081082;28;20284;-68
2023/11/13 00:22:21;;;;;;;0.52;0.30;;;9.20;99.90;;;;;;2083201;28;20248;-68
2023/11/13 00:23:22;;;;;;;0.60;0.30;;;9.10;99.90;;;;;;2082481;28;20235;-68
2023/11/13 00:24:23;;;;;;;0.30;0.30;;;9.20;99.90;;;;;;2082603;28;20315;-68
2023/11/13 00:25:24;;;;;;;0.47;0.47;;;9.20;99.90;;;;;;2086462;28;20231;-68
2023/11/13 00:26:25;;;;;;;0.30;0.30;;;9.20;99.90;;;;;;2090029;28;20595;-68
2023/11/13 00:27:26;;;;;;;0.30;0.30;;;9.30;99.90;;;;;;2082361;28;20782;-68
2023/11/13 00:28:26;;;;;;;0.30;0.30;;;9.30;99.90;;;;;;2080375;28;20276;-68
2023/11/13 00:29:27;;;;;;;0.30;0.30;;;9.30;99.90;;;;;;2084558;28;20632;-69
2023/11/13 00:30:28;;;;;;;0.30;0.30;;;9.30;99.90;;;;;;2086892;28;20224;-68
2023/11/13 00:31:28;;;;;;;0.30;0.30;;;9.30;99.90;;;;;;2083662;28;20684;-68
2023/11/13 00:32:29;;;;;;;0.30;0.30;;;9.30;99.90;;;;;;2095746;28;20258;-69
2023/11/13 00:33:30;;;;;;;0.20;0.20;;;9.30;99.90;;;;;;2097980;28;20468;-68
2023/11/13 00:34:32;;;;;;;0.57;0.30;;;9.30;99.90;;;;;;2095743;28;20227;-67
2023/11/13 00:35:33;;;;;;;0.30;0.30;;;9.30;99.90;;;;;;2087331;28;20236;-68
2023/11/13 00:36:33;;;;;;;0.30;0.30;;;9.30;99.90;;;;;;2095438;28;20782;-68
2023/11/13 00:37:34;;;;;;;0.40;0.40;;;9.30;99.90;;;;;;2090961;28;20231;-68
2023/11/13 00:38:35;;;;;;;0.30;0.30;;;9.30;99.90;;;;;;2089622;28;20231;-68
2023/11/13 00:39:37;;;;;;;2.27;0.77;;;9.30;99.90;;;;;;2089059;28;20238;-68
2023/11/13 00:40:38;;;;;;;1.25;0.30;;;9.30;99.90;;;;;;2089031;28;20232;-68
2023/11/13 00:41:41;;;;;;;0.30;0.30;;;9.30;99.90;;;;;;2088782;28;20687;-68
2023/11/13 00:42:42;;;;;;;1.10;0.30;;;9.40;99.90;;;;;;2081184;28;20710;-68
2023/11/13 00:43:43;;;;;;;0.68;0.45;;;9.30;99.90;;;;;;2088940;28;20820;-68
2023/11/13 00:44:44;;;;;;;1.23;0.30;;;9.40;99.90;;;;;;2087106;28;20232;-67
2023/11/13 00:45:44;;;;;;;0.43;0.40;;;9.30;99.90;;;;;;2077894;28;20454;-67
2023/11/13 00:46:45;;;;;;;0.60;0.40;;;9.30;99.90;;;;;;2087134;28;20264;-67
2023/11/13 00:47:46;;;;;;;0.77;0.40;;;9.30;99.90;;;;;;2094603;28;20223;-68
2023/11/13 00:48:46;;;;;;;1.07;0.40;;;9.30;99.90;;;;;;2081354;28;20307;-67
2023/11/13 00:49:47;;;;;;;0.40;0.40;;;9.30;99.90;;;;;;2078338;28;20229;-67
2023/11/13 00:50:48;;;;;;;3.43;0.70;;;9.30;99.90;;;;;;2072133;28;20232;-67
2023/11/13 00:51:48;;;;;;;0.47;0.47;;;9.30;99.90;;;;;;2079797;28;20351;-68
2023/11/13 00:52:50;;;;;;;0.40;0.40;;;9.30;99.90;;;;;;2080281;28;20374;-67
2023/11/13 00:53:51;;;;;;;0.40;0.40;;;9.40;99.90;;;;;;2083339;28;20289;-67
2023/11/13 00:54:52;;;;;;;1.73;0.60;;;9.30;99.90;;;;;;2078801;28;20286;-68
2023/11/13 00:55:53;;;;;;;0.60;0.47;;;9.30;99.90;;;;;;2086425;28;20235;-67
2023/11/13 00:56:53;;;;;;;1.50;0.70;;;9.40;99.90;;;;;;2087893;28;20271;-67
2023/11/13 00:57:54;;;;;;;1.27;0.50;;;9.40;99.90;;;;;;2082956;28;20529;-67
2023/11/13 00:58:55;;;;;;;2.20;0.60;;;9.40;99.90;;;;;;2091382;28;20318;-67
2023/11/13 00:59:55;;;;;;;2.63;0.70;;;9.30;99.90;;;;;;2075166;28;20241;-67
2023/11/13 01:00:56;;;;;;;0.40;0.40;;;9.30;99.90;;;;;;2071027;28;20225;-67
2023/11/13 01:01:59;;;;;;;1.17;0.70;;;9.30;99.90;;;;;;2086364;28;20220;-68
2023/11/13 01:02:59;;;;;;;1.02;0.50;;;9.20;99.90;;;;;;2094367;28;20617;-68
2023/11/13 01:04:00;;;;;;;0.87;0.60;;;9.20;99.90;;;;;;2087368;28;20283;-67
2023/11/13 01:05:01;;;;;;;1.33;0.60;;;9.20;99.90;;;;;;2090270;28;20291;-67
2023/11/13 01:06:05;;;;;;;1.10;0.40;;;9.20;99.90;;;;;;2090266;28;20279;-67
2023/11/13 01:07:06;;;;;;;1.98;0.60;;;9.20;99.90;;;;;;2087320;28;20188;-67
2023/11/13 01:08:06;;;;;;;0.80;0.50;;;9.20;99.90;;;;;;2089823;28;20219;-67
2023/11/13 01:09:10;;;;;;;2.63;0.60;;;9.20;99.90;;;;;;2090607;28;20589;-67
2023/11/13 01:10:12;;;;;;;1.70;0.57;;;9.20;99.90;;;;;;2083165;28;20191;-67
2023/11/13 01:11:14;;;;;;;1.40;0.65;;;9.20;99.90;;;;;;2080936;28;20189;-68
2023/11/13 01:12:17;;;;;;;0.52;0.50;;;9.30;99.90;;;;;;2078581;28;20188;-67
2023/11/13 01:13:17;;;;;;;1.17;0.70;;;9.30;99.90;;;;;;2084942;28;20313;-67
2023/11/13 01:14:19;;;;;;;0.80;0.67;;;9.20;99.90;;;;;;2087055;28;20253;-67
2023/11/13 01:15:20;;;;;;;2.13;0.73;;;9.20;99.90;;;;;;2088307;28;20254;-68
2023/11/13 01:16:21;;;;;;;2.83;0.90;;;9.10;99.90;;;;;;2081943;28;20240;-67
2023/11/13 01:17:21;;;;;;;1.80;0.77;;;9.20;99.90;;;;;;2082745;28;20228;-67
2023/11/13 01:18:23;;;;;;;1.27;1.13;;;9.20;99.90;;;;;;2081326;28;20319;-67
2023/11/13 01:19:24;;;;;;;2.92;0.73;;;9.10;99.90;;;;;;2080545;28;20260;-67
2023/11/13 01:20:26;;;;;;;0.52;0.52;;;9.10;99.90;;;;;;2084149;28;20310;-67
2023/11/13 01:21:28;;;;;;;1.30;1.00;;;9.10;99.90;;;;;;2082986;28;20216;-67
2023/11/13 01:22:29;;;;;;;2.15;1.05;;;9.10;99.90;;;;;;2072870;28;20586;-67
2023/11/13 01:23:29;;;;;;;2.35;1.10;;;9.10;99.90;;;;;;2084654;28;20251;-67
2023/11/13 01:24:30;;;;;;;2.00;0.90;;;9.10;99.90;;;;;;2084744;28;20315;-67
2023/11/13 01:25:31;;;;;;;4.30;0.87;;;9.10;99.90;;;;;;2079700;28;20631;-67
2023/11/13 01:26:32;;;;;;;2.38;0.90;;;9.10;99.90;;;;;;2079801;28;20236;-67
2023/11/13 01:27:33;;;;;;;2.37;0.90;;;9.10;99.90;;;;;;2079410;28;20520;-67
2023/11/13 01:28:33;;;;;;;3.83;1.20;;;9.10;99.90;;;;;;2079910;28;20231;-68
2023/11/13 01:29:34;;;;;;;3.13;1.13;;;9.10;99.90;;;;;;2087795;28;20636;-67
2023/11/13 01:30:35;;;;;;;3.13;1.10;;;9.10;99.90;;;;;;2082840;28;20236;-68
2023/11/13 01:31:35;;;;;;;2.60;1.10;;;9.00;99.90;;;;;;2082643;28;20761;-67
2023/11/13 01:32:37;;;;;;;5.07;1.30;;;9.10;99.90;;;;;;2080211;28;20235;-67
2023/11/13 01:33:37;;;;;;;3.08;1.15;;;9.10;99.90;;;;;;2082263;28;20282;-67
2023/11/13 01:34:38;;;;;;;1.83;1.13;;;9.10;99.90;;;;;;2071479;28;20229;-67
2023/11/13 01:35:39;;;;;;;3.30;1.07;;;9.10;99.90;;;;;;2078077;28;20319;-67
2023/11/13 01:36:40;;;;;;;6.20;1.53;;;9.10;99.90;;;;;;2086353;28;20320;-67
2023/11/13 01:37:40;;;;;;;4.27;1.33;;;9.10;99.90;;;;;;2086376;28;20290;-67
2023/11/13 01:38:41;;;;;;;4.30;1.20;;;9.10;99.90;;;;;;2087148;28;20304;-67
2023/11/13 01:39:42;;;;;;;2.67;1.30;;;9.10;99.90;;;;;;2091367;28;20242;-68
2023/11/13 01:40:42;;;;;;;5.17;1.80;;;9.10;99.90;;;;;;2090824;28;20780;-67
2023/11/13 01:41:43;;;;;;;2.70;1.20;;;9.20;99.90;;;;;;2087036;28;20235;-68
2023/11/13 01:42:44;;;;;;;5.05;1.40;;;9.20;99.90;;;;;;2084333;28;20286;-68
2023/11/13 01:43:45;;;;;;;5.00;1.50;;;9.20;99.90;;;;;;2089909;28;20376;-68
2023/11/13 01:44:46;;;;;;;6.07;1.37;;;9.20;99.90;;;;;;2090676;28;20729;-68
2023/11/13 01:45:53;;;;;;;3.83;1.27;;;9.20;99.90;;;;;;2082622;28;20415;-68
2023/11/13 01:46:55;;;;;;;3.55;1.25;;;9.10;99.90;;;;;;2080399;28;20319;-68
2023/11/13 01:47:55;;;;;;;7.68;2.17;;;9.10;99.90;;;;;;2068378;28;20233;-68
2023/11/13 01:48:57;;;;;;;6.80;1.83;;;9.20;99.90;;;;;;2068629;28;20321;-68
2023/11/13 01:49:58;;;;;;;2.72;1.35;;;9.10;99.90;;;;;;2072815;28;20277;-69
2023/11/13 01:50:59;;;;;;;13.82;2.90;;;9.20;99.90;;;;;;2078361;28;20224;-68
2023/11/13 01:52:01;;;;;;;4.83;1.73;;;9.20;99.90;;;;;;2086932;28;20196;-68
2023/11/13 01:53:02;;;;;;;5.18;1.50;;;9.20;99.90;;;;;;2075850;28;20429;-69
2023/11/13 01:54:04;;;;;;;2.35;1.20;;;9.20;99.90;;;;;;2075269;28;20627;-68
2023/11/13 01:55:05;;;;;;;2.78;1.23;;;9.20;99.90;;;;;;2081012;28;20196;-68
2023/11/13 01:56:07;;;;;;;4.53;1.52;;;9.20;99.90;;;;;;2078608;28;20203;-68
2023/11/13 01:57:09;;;;;;;2.30;1.35;;;9.10;99.90;;;;;;2071076;28;20182;-68
2023/11/13 01:58:10;;;;;;;2.72;1.33;;;9.10;99.90;;;;;;2079976;28;20180;-68
2023/11/13 01:59:15;;;;;;;3.33;1.65;;;9.10;99.90;;;;;;2073183;28;20205;-68
2023/11/13 02:00:16;;;;;;;3.55;1.48;;;9.10;99.90;;;;;;2065831;28;20264;-68
2023/11/13 02:01:17;;;;;;;4.05;1.15;;;9.10;99.90;;;;;;2076334;28;20170;-68
2023/11/13 02:02:18;;;;;;;8.03;1.47;;;9.10;99.90;;;;;;2077187;28;20654;-68
2023/11/13 02:03:20;;;;;;;3.08;1.13;;;9.10;99.90;;;;;;2087528;28;20311;-68
2023/11/13 02:04:20;;;;;;;6.97;1.52;;;9.20;99.90;;;;;;2079651;28;20231;-68
2023/11/13 02:05:21;;;;;;;3.67;1.10;;;9.30;99.90;;;;;;2083328;28;20775;-68
2023/11/13 02:06:22;;;;;;;5.50;1.60;;;9.20;99.90;;;;;;2087209;28;20255;-68
2023/11/13 02:07:23;;;;;;;4.30;1.20;;;9.30;99.90;;;;;;2088475;28;20275;-68
2023/11/13 02:08:23;;;;;;;4.53;1.73;;;9.30;99.90;;;;;;2087634;28;20259;-68
2023/11/13 02:09:25;;;;;;;4.63;1.20;;;9.20;99.90;;;;;;2087186;28;20602;-68
2023/11/13 02:10:27;;;;;;;2.55;1.30;;;9.20;99.90;;;;;;2096673;28;20747;-68
2023/11/13 02:11:29;;;;;;;3.08;1.10;;;9.30;99.90;;;;;;2090937;28;20224;-68
2023/11/13 02:12:29;;;;;;;3.00;1.35;;;9.30;99.90;;;;;;2089056;28;20311;-68
2023/11/13 02:13:30;;;;;;;4.10;1.10;;;9.30;99.90;;;;;;2087170;28;20235;-68
2023/11/13 02:14:31;;;;;;;5.65;1.60;;;9.30;99.90;;;;;;2096692;28;20227;-68
2023/11/13 02:15:32;;;;;;;4.40;1.40;;;9.30;99.90;;;;;;2088105;28;20285;-68
2023/11/13 02:16:34;;;;;;;4.07;1.30;;;9.30;99.90;;;;;;2088552;28;20354;-68
2023/11/13 02:17:35;;;;;;;7.68;1.58;;;9.30;99.90;;;;;;2091839;28;20652;-67
2023/11/13 02:18:36;;;;;;;4.03;1.27;;;9.30;99.90;;;;;;2087357;28;20251;-68
2023/11/13 02:19:37;;;;;;;6.55;1.75;;;9.30;99.90;;;;;;2084070;28;20250;-68
2023/11/13 02:20:38;;;;;;;5.53;2.00;;;9.30;99.90;;;;;;2089013;28;20603;-68
2023/11/13 02:21:38;;;;;;;6.30;1.53;;;9.30;99.90;;;;;;2077483;28;20365;-68
2023/11/13 02:22:39;;;;;;;3.90;1.50;;;9.20;99.90;;;;;;2087212;28;20232;-68
2023/11/13 02:23:40;;;;;;;4.73;2.40;;;9.30;99.90;;;;;;2083416;28;20715;-68
2023/11/13 02:24:41;;;;;;;1.80;1.00;;;9.30;99.90;;;;;;2075550;28;20225;-68
2023/11/13 02:25:49;;;;;;;3.97;1.30;;;9.30;99.90;;;;;;2089327;28;20220;-68
2023/11/13 02:26:49;;;;;;;4.00;1.40;;;9.30;99.90;;;;;;2085634;28;20608;-68
2023/11/13 02:28:00;;;;;;;4.60;1.10;;;9.40;99.90;;;;;;2083053;28;20260;-68
2023/11/13 02:29:01;;;;;;;3.47;1.52;;;9.40;99.90;;;;;;2082170;28;20366;-68
2023/11/13 02:30:02;;;;;;;3.93;1.23;;;9.30;99.90;;;;;;2074065;28;20248;-68
2023/11/13 02:31:04;;;;;;;4.32;1.58;;;9.40;99.90;;;;;;2081421;28;20800;-68
2023/11/13 02:32:06;;;;;;;3.93;1.20;;;9.30;99.90;;;;;;2083750;28;20177;-68
2023/11/13 02:33:06;;;;;;;3.20;1.33;;;9.40;99.90;;;;;;2083810;28;20664;-68
2023/11/13 02:34:07;;;;;;;5.97;1.30;;;9.30;99.90;;;;;;2088463;28;20184;-68
2023/11/13 02:35:08;;;;;;;4.43;1.30;;;9.40;99.90;;;;;;2090343;28;20215;-68
2023/11/13 02:36:09;;;;;;;4.10;1.10;;;9.40;99.90;;;;;;2090313;28;20269;-68
2023/11/13 02:37:10;;;;;;;5.00;1.07;;;9.40;99.90;;;;;;2090824;28;20210;-68
2023/11/13 02:38:11;;;;;;;17.35;1.98;;;9.30;99.90;;;;;;2090598;28;20188;-68
2023/11/13 02:39:11;;;;;;;5.20;1.33;;;9.30;99.90;;;;;;2092296;28;20200;-68
2023/11/13 02:40:12;;;;;;;3.27;1.30;;;9.30;99.90;;;;;;2092373;28;20176;-68
2023/11/13 02:41:13;;;;;;;4.50;1.70;;;9.30;99.90;;;;;;2092423;28;20267;-68
2023/11/13 02:42:15;;;;;;;4.93;1.70;;;9.40;99.90;;;;;;2090672;28;20183;-68
2023/11/13 02:43:15;;;;;;;8.10;1.63;;;9.30;99.90;;;;;;2091207;28;20215;-68
2023/11/13 02:44:16;;;;;;;6.47;2.00;;;9.30;99.90;;;;;;2090010;28;20180;-68
2023/11/13 02:45:17;;;;;;;5.57;1.67;;;9.40;99.90;;;;;;2090127;28;20238;-68
2023/11/13 02:46:18;;;;;;;5.70;1.73;;;9.40;99.90;;;;;;2092375;28;20710;-68
2023/11/13 02:47:19;;;;;;;7.83;1.43;;;9.40;99.90;;;;;;2091116;28;20235;-67
2023/11/13 02:48:21;;;;;;;4.30;1.80;;;9.40;99.90;;;;;;2083214;28;20229;-68
2023/11/13 02:49:22;;;;;;;5.00;1.92;;;9.40;99.90;;;;;;2089077;28;20449;-68
2023/11/13 02:50:24;;;;;;;4.30;1.50;;;9.30;99.90;;;;;;2096926;28;20308;-68
2023/11/13 02:51:24;;;;;;;4.43;1.70;;;9.30;99.90;;;;;;2092402;28;20228;-68
2023/11/13 02:52:25;;;;;;;6.47;1.83;;;9.40;99.90;;;;;;2088389;28;20219;-68
2023/11/13 02:53:26;;;;;;;5.27;1.97;;;9.30;99.90;;;;;;2088735;28;20231;-68
2023/11/13 02:54:26;;;;;;;4.67;1.30;;;9.40;99.90;;;;;;2080654;28;20236;-68
2023/11/13 02:55:27;;;;;;;8.07;1.73;;;9.40;99.90;;;;;;2076370;28;20634;-68
2023/11/13 02:56:28;;;;;;;3.93;1.70;;;9.50;99.90;;;;;;2079638;28;20235;-67
2023/11/13 02:57:29;;;;;;;3.30;1.30;;;9.40;99.90;;;;;;2084222;28;20382;-68
2023/11/13 02:58:30;;;;;;;7.27;1.70;;;9.50;99.90;;;;;;2085469;28;20236;-67
2023/11/13 02:59:30;;;;;;;5.50;1.60;;;9.50;99.90;;;;;;2087447;28;20231;-68
2023/11/13 03:00:33;;;;;;;10.63;1.80;;;9.50;99.90;;;;;;2093823;28;20314;-68
2023/11/13 03:01:34;;;;;;;4.70;1.33;;;9.50;99.90;;;;;;2091388;28;20269;-68
2023/11/13 03:02:34;;;;;;;7.57;1.70;;;9.50;99.90;;;;;;2074667;28;20233;-68
2023/11/13 03:03:35;;;;;;;5.03;1.63;;;9.40;99.90;;;;;;2074766;28;20280;-68
2023/11/13 03:04:36;;;;;;;6.23;1.93;;;9.40;99.90;;;;;;2078661;28;20257;-68
2023/11/13 03:05:36;;;;;;;4.80;1.83;;;9.40;99.90;;;;;;2083594;28;20746;-68
2023/11/13 03:06:37;;;;;;;6.20;2.17;;;9.30;99.90;;;;;;2089452;28;20224;-68
2023/11/13 03:07:38;;;;;;;3.77;1.60;;;9.30;99.90;;;;;;2091627;28;20223;-68
2023/11/13 03:08:41;;;;;;;4.80;1.87;;;9.30;99.90;;;;;;2090027;28;20699;-68
2023/11/13 03:09:42;;;;;;;7.28;1.60;;;9.30;99.90;;;;;;2078968;28;20221;-68
2023/11/13 03:10:42;;;;;;;5.90;1.60;;;9.30;99.90;;;;;;2079766;28;20248;-68
2023/11/13 03:11:43;;;;;;;7.70;1.90;;;9.30;99.90;;;;;;2092062;28;20265;-68
2023/11/13 03:12:44;;;;;;;4.63;1.40;;;9.30;99.90;;;;;;2082216;28;20996;-68
2023/11/13 03:13:45;;;;;;;5.30;1.70;;;9.30;99.90;;;;;;2082855;28;20244;-68
2023/11/13 03:14:45;;;;;;;5.77;1.77;;;9.20;99.90;;;;;;2081566;28;20239;-68
2023/11/13 03:15:47;;;;;;;5.03;1.53;;;9.20;99.90;;;;;;2083810;28;20228;-68
2023/11/13 03:16:48;;;;;;;6.00;1.58;;;9.30;99.90;;;;;;2079071;28;20224;-68
2023/11/13 03:17:51;;;;;;;4.57;1.40;;;9.30;99.90;;;;;;2078983;28;20268;-68
2023/11/13 03:18:52;;;;;;;5.05;1.60;;;9.30;99.90;;;;;;2086411;28;20730;-68
2023/11/13 03:19:52;;;;;;;4.77;1.70;;;9.30;99.90;;;;;;2087269;28;20228;-68
2023/11/13 03:20:54;;;;;;;5.07;1.70;;;9.30;99.90;;;;;;2089817;28;20231;-67
2023/11/13 03:21:54;;;;;;;12.30;2.13;;;9.30;99.90;;;;;;2089545;28;20264;-68
2023/11/13 03:22:55;;;;;;;3.30;1.43;;;9.30;99.90;;;;;;2080495;28;20233;-68
2023/11/13 03:23:56;;;;;;;4.00;1.40;;;9.20;99.90;;;;;;2078725;28;20236;-68
2023/11/13 03:24:57;;;;;;;2.97;1.40;;;9.30;99.90;;;;;;2075604;28;20295;-69
2023/11/13 03:26:03;;;;;;;4.10;1.70;;;9.30;99.90;;;;;;2073742;28;20200;-69
2023/11/13 03:27:03;;;;;;;5.38;2.20;;;9.30;99.90;;;;;;2089435;28;20696;-68
2023/11/13 03:28:04;;;;;;;10.07;2.50;;;9.30;99.90;;;;;;2082580;28;20211;-68
2023/11/13 03:29:05;;;;;;;5.23;1.80;;;9.30;99.90;;;;;;2078091;28;20301;-68
2023/11/13 03:30:06;;;;;;;4.30;1.47;;;9.30;99.90;;;;;;2087697;28;20189;-68
2023/11/13 03:31:07;;;;;;;6.65;2.53;;;9.30;99.90;;;;;;2088327;28;20290;-68
2023/11/13 03:32:09;;;;;;;7.63;1.57;;;9.30;99.90;;;;;;2095845;28;20187;-68
2023/11/13 03:33:09;;;;;;;4.18;1.80;;;9.20;99.90;;;;;;2092660;28;20750;-68
2023/11/13 03:34:10;;;;;;;4.50;1.63;;;9.20;99.90;;;;;;2079793;28;20192;-68
2023/11/13 03:35:12;;;;;;;8.47;2.50;;;9.20;99.90;;;;;;2086663;28;20343;-68
2023/11/13 03:36:13;;;;;;;2.13;1.38;;;9.20;99.90;;;;;;2087243;28;20180;-68
2023/11/13 03:37:14;;;;;;;8.37;2.50;;;9.20;99.90;;;;;;2080213;28;20571;-67
2023/11/13 03:38:15;;;;;;;6.53;1.77;;;9.30;99.90;;;;;;2083224;28;20192;-67
2023/11/13 03:39:17;;;;;;;4.40;1.65;;;9.30;99.90;;;;;;2073533;28;20217;-68
2023/11/13 03:40:18;;;;;;;9.07;1.90;;;9.20;99.90;;;;;;2071953;28;20930;-68
2023/11/13 03:41:18;;;;;;;4.83;1.73;;;9.20;99.90;;;;;;2086571;28;20266;-68
2023/11/13 03:42:19;;;;;;;5.80;1.97;;;9.30;99.90;;;;;;2085667;28;20758;-68
2023/11/13 03:43:20;;;;;;;7.20;2.08;;;9.30;99.90;;;;;;2081824;28;20633;-68
2023/11/13 03:44:21;;;;;;;11.50;2.87;;;9.30;99.90;;;;;;2086983;28;20224;-68
2023/11/13 03:45:21;;;;;;;8.87;2.77;;;9.30;99.90;;;;;;2086753;28;20451;-68
2023/11/13 03:46:22;;;;;;;5.63;1.90;;;9.30;99.90;;;;;;2094995;28;20283;-68
2023/11/13 03:47:23;;;;;;;5.83;2.40;;;9.30;99.90;;;;;;2086922;28;20232;-68
2023/11/13 03:48:24;;;;;;;11.10;2.20;;;9.30;99.90;;;;;;2093919;28;20223;-68
2023/11/13 03:49:24;;;;;;;7.10;2.00;;;9.40;99.90;;;;;;2089335;28;20600;-68
2023/11/13 03:50:25;;;;;;;8.10;1.80;;;9.40;99.90;;;;;;2081791;28;20247;-67
2023/11/13 03:51:26;;;;;;;6.17;2.73;;;9.40;99.90;;;;;;2082179;28;20220;-68
2023/11/13 03:52:27;;;;;;;7.07;2.28;;;9.40;99.90;;;;;;2081701;28;20307;-68
2023/11/13 03:53:27;;;;;;;6.30;2.17;;;9.40;99.90;;;;;;2075047;28;20800;-68
2023/11/13 03:54:28;;;;;;;6.77;2.40;;;9.40;99.90;;;;;;2074008;28;20674;-68
2023/11/13 03:55:29;;;;;;;4.60;1.70;;;9.40;99.90;;;;;;2085544;28;20378;-68
2023/11/13 03:56:30;;;;;;;7.27;2.70;;;9.40;99.90;;;;;;2081681;28;20286;-68
2023/11/13 03:57:30;;;;;;;3.60;1.53;;;9.40;99.90;;;;;;2084834;28;20267;-67
2023/11/13 03:58:31;;;;;;;6.33;2.30;;;9.40;99.90;;;;;;2086595;28;20741;-67
2023/11/13 03:59:32;;;;;;;12.73;3.33;;;9.40;99.90;;;;;;2086234;28;20260;-68
2023/11/13 04:00:34;;;;;;;9.13;2.77;;;9.40;99.90;;;;;;2080607;28;20239;-68
2023/11/13 04:01:35;;;;;;;5.68;2.10;;;9.40;99.90;;;;;;2087569;28;20314;-67
2023/11/13 04:02:36;;;;;;;10.77;2.77;;;9.40;99.90;;;;;;2098673;28;20231;-68
2023/11/13 04:03:36;;;;;;;8.87;2.57;;;9.40;99.90;;;;;;2085126;28;20300;-67
2023/11/13 04:04:37;;;;;;;8.90;2.80;;;9.40;99.90;;;;;;2080127;28;20267;-68
2023/11/13 04:05:38;;;;;;;11.00;2.80;;;9.40;99.90;;;;;;2086831;28;20273;-68
2023/11/13 04:06:38;;;;;;;6.83;1.97;;;9.40;99.90;;;;;;2088550;28;20281;-67
2023/11/13 04:07:39;;;;;;;10.87;2.73;;;9.40;99.90;;;;;;2097164;28;20318;-68
2023/11/13 04:08:40;;;;;;;7.27;2.10;;;9.40;99.90;;;;;;2074435;28;20307;-68
2023/11/13 04:09:41;;;;;;;6.38;2.30;;;9.40;99.90;;;;;;2079238;28;20221;-68
2023/11/13 04:10:42;;;;;;;9.97;2.30;;;9.40;99.90;;;;;;2092113;28;20602;-67
2023/11/13 04:11:42;;;;;;;6.53;2.00;;;9.40;99.90;;;;;;2093141;28;20226;-68
2023/11/13 04:12:44;;;;;;;18.13;3.13;;;9.40;99.90;;;;;;2087634;28;20283;-68
2023/11/13 04:13:45;;;;;;;13.25;2.50;;;9.40;99.90;;;;;;2082563;28;20465;-67
2023/11/13 04:14:45;;;;;;;5.53;2.10;;;9.40;99.90;;;;;;2078589;28;20263;-67
2023/11/13 04:15:46;;;;;;;8.47;2.40;;;9.40;99.90;;;;;;2077764;28;20695;-67
2023/11/13 04:16:47;;;;;;;14.70;2.83;;;9.40;99.90;;;;;;2079790;28;20240;-67
2023/11/13 04:17:48;;;;;;;9.40;2.37;;;9.30;99.90;;;;;;2082608;28;20232;-67
2023/11/13 04:18:48;;;;;;;10.40;2.93;;;9.30;99.90;;;;;;2078147;28;20229;-68
2023/11/13 04:19:50;;;;;;;7.67;2.23;;;9.30;99.90;;;;;;2069065;28;20319;-67
2023/11/13 04:20:50;;;;;;;5.13;1.88;;;9.30;99.90;;;;;;2083141;28;20232;-67
2023/11/13 04:21:51;;;;;;;8.60;2.40;;;9.30;99.90;;;;;;2091155;28;20621;-67
2023/11/13 04:22:53;;;;;;;8.00;2.87;;;9.30;99.90;;;;;;2077821;28;20249;-67
2023/11/13 04:23:54;;;;;;;6.28;1.83;;;9.30;99.90;;;;;;2070593;28;20795;-67
2023/11/13 04:24:55;;;;;;;8.97;2.20;;;9.40;99.90;;;;;;2079341;28;20228;-67
2023/11/13 04:25:56;;;;;;;10.25;2.20;;;9.40;99.90;;;;;;2073947;28;20505;-67
2023/11/13 04:26:57;;;;;;;7.57;2.33;;;9.40;99.90;;;;;;2090622;28;20225;-69
2023/11/13 04:27:57;;;;;;;7.30;2.23;;;9.40;99.90;;;;;;2090021;28;20341;-69
2023/11/13 04:28:58;;;;;;;6.20;1.90;;;9.40;99.90;;;;;;2074848;28;20233;-68
2023/11/13 04:29:59;;;;;;;6.97;1.87;;;9.30;99.90;;;;;;2082383;28;20256;-68
2023/11/13 04:31:02;;;;;;;8.23;1.85;;;9.40;99.90;;;;;;2081924;28;20230;-68
2023/11/13 04:32:03;;;;;;;8.77;1.92;;;9.40;99.90;;;;;;2081511;28;20185;-68
2023/11/13 04:33:03;;;;;;;7.20;1.93;;;9.40;99.90;;;;;;2082808;28;20185;-68
2023/11/13 04:34:05;;;;;;;8.90;1.87;;;9.40;99.90;;;;;;2073153;28;20582;-68
2023/11/13 04:35:06;;;;;;;8.50;1.77;;;9.40;99.90;;;;;;2074229;28;20205;-68
2023/11/13 04:36:08;;;;;;;16.38;2.42;;;9.40;99.90;;;;;;2082801;28;20199;-68
2023/11/13 04:37:08;;;;;;;8.88;2.10;;;9.40;99.90;;;;;;2090883;28;20206;-68
2023/11/13 04:38:09;;;;;;;5.83;2.60;;;9.40;99.90;;;;;;2089233;28;21237;-68
2023/11/13 04:39:12;;;;;;;9.02;1.95;;;9.40;99.90;;;;;;2082293;28;20294;-68
2023/11/13 04:40:12;;;;;;;8.82;2.10;;;9.40;99.90;;;;;;2082422;28;20211;-68
2023/11/13 04:41:15;;;;;;;5.97;2.17;;;9.30;99.90;;;;;;2082420;28;20230;-68
2023/11/13 04:42:16;;;;;;;8.18;2.20;;;9.40;99.90;;;;;;2082195;28;20190;-68
2023/11/13 04:43:16;;;;;;;7.50;2.10;;;9.30;99.90;;;;;;2081009;28;21870;-67
2023/11/13 04:44:17;;;;;;;12.37;2.47;;;9.30;99.90;;;;;;2073141;28;20571;-68
2023/11/13 04:45:18;;;;;;;6.53;1.97;;;9.20;99.90;;;;;;2078364;28;20229;-68
2023/11/13 04:46:19;;;;;;;12.33;2.57;;;9.10;99.90;;;;;;2075664;28;20263;-68
2023/11/13 04:47:20;;;;;;;8.23;2.40;;;9.10;99.90;;;;;;2088638;28;20310;-68
2023/11/13 04:48:20;;;;;;;3.00;1.53;;;9.10;99.90;;;;;;2089156;28;20234;-67
2023/11/13 04:49:21;;;;;;;8.33;2.23;;;9.00;99.90;;;;;;2085617;28;20681;-67
2023/11/13 04:50:22;;;;;;;3.27;1.33;;;9.00;99.90;;;;;;2082342;28;20486;-68
2023/11/13 04:51:24;;;;;;;5.05;2.13;;;9.00;99.90;;;;;;2089549;28;20223;-68
2023/11/13 04:52:24;;;;;;;5.47;1.35;;;8.90;99.90;;;;;;2083177;28;20730;-68
2023/11/13 04:53:26;;;;;;;6.40;1.30;;;8.90;99.90;;;;;;2072135;28;20229;-68
2023/11/13 04:54:26;;;;;;;3.47;1.20;;;8.80;99.90;;;;;;2077437;28;20229;-67
2023/11/13 04:55:27;;;;;;;3.67;1.50;;;8.80;99.90;;;;;;2079281;28;20307;-67
2023/11/13 04:56:28;;;;;;;8.50;1.60;;;8.70;99.90;;;;;;2078094;28;20224;-68
2023/11/13 04:57:28;;;;;;;7.30;1.60;;;8.60;99.90;;;;;;2078314;28;20283;-68
2023/11/13 04:58:29;;;;;;;3.20;1.13;;;8.50;99.90;;;;;;2078596;28;20320;-67
2023/11/13 04:59:31;;;;;;;3.27;1.20;;;8.40;99.90;;;;;;2086590;28;20317;-67
2023/11/13 05:00:31;;;;;;;4.70;1.10;;;8.30;99.90;;;;;;2090127;28;20224;-68
2023/11/13 05:01:39;;;;;;;5.00;1.10;;;8.20;99.90;;;;;;2078980;28;20256;-68
2023/11/13 05:02:41;;;;;;;3.10;1.25;;;8.20;99.90;;;;;;2082777;28;20252;-67
2023/11/13 05:03:42;;;;;;;4.03;1.52;;;8.20;99.90;;;;;;2088448;28;20326;-67
2023/11/13 05:04:43;;;;;;;2.77;1.23;;;8.20;99.90;;;;;;2084724;28;20231;-67
2023/11/13 05:05:43;;;;;;;5.05;1.30;;;8.10;99.90;;;;;;2092739;28;20231;-67
2023/11/13 05:06:44;;;;;;;3.10;1.30;;;8.10;99.90;;;;;;2084010;28;20350;-68
2023/11/13 05:07:45;;;;;;;4.47;1.20;;;8.10;99.90;;;;;;2095278;28;20231;-68
2023/11/13 05:08:46;;;;;;;3.17;1.47;;;8.10;99.90;;;;;;2090321;28;20259;-67
2023/11/13 05:09:47;;;;;;;5.77;1.17;;;8.00;99.90;;;;;;2082402;28;20308;-67
2023/11/13 05:10:47;;;;;;;4.33;1.07;;;8.00;99.90;;;;;;2090271;28;20278;-67
2023/11/13 05:11:48;;;;;;;4.00;1.50;;;8.00;99.90;;;;;;2091473;28;20708;-67
2023/11/13 05:12:49;;;;;;;2.73;1.60;;;8.00;99.90;;;;;;2090872;28;20326;-67
2023/11/13 05:13:53;;;;;;;4.80;1.53;;;8.00;99.90;;;;;;2082230;28;20283;-68
2023/11/13 05:14:54;;;;;;;4.25;1.35;;;8.00;99.90;;;;;;2077861;28;20738;-67
2023/11/13 05:15:55;;;;;;;4.87;1.40;;;8.00;99.90;;;;;;2070495;28;20304;-67
2023/11/13 05:16:58;;;;;;;1.93;1.00;;;8.00;99.90;;;;;;2078441;28;20759;-67
2023/11/13 05:17:59;;;;;;;5.18;1.13;;;8.10;99.90;;;;;;2089785;28;20211;-68
2023/11/13 05:18:59;;;;;;;3.20;1.10;;;8.10;99.90;;;;;;2083486;28;20216;-68
2023/11/13 05:20:00;;;;;;;6.63;1.07;;;8.00;99.90;;;;;;2090502;28;20180;-67
2023/11/13 05:21:01;;;;;;;2.60;0.90;;;8.00;99.90;;;;;;2089587;28;20555;-68
2023/11/13 05:22:02;;;;;;;1.92;1.00;;;8.00;99.90;;;;;;2080774;28;20209;-68